Allendale, Wyoming
Current Conditions -  °F | °C
As of 1:53 PM on Thursday 18 Dec 2014 (Local Time) from KCPR Reporting Station
Clear Clear  
Wind Chill: 16°   Ceiling: Unl
Heat Index: 28°   Visibility: 10mi
Dew Point: 19°   Wind: 16mph
Humidity: 69%   Direction: 220°SW
Pressure: 30.02"   Gusts: NA
Location:  42.84°N, 106.275°W
Report Text: KCPR 182053Z 22014KT 10SM CLR M02/M07 A3002 RMK AO2 SLP199 T10221072 56011
Loading
Personal Weather Stations






























Interactive Weather Map New forecast layout! Learn more

10-Day Weather Forecast

Advertisements
Track Severe Weather on mobile